Time;durP1;ratioP1;P1;durP2;ratioP2;P2;SDS_P1;SDS_P2;PMS_P1;PMS_P2;Temp;Humidity;BMP_temperature;BMP_pressure;BME280_temperature;BME280_humidity;BME280_pressure;Samples;Min_cycle;Max_cycle;Signal;HPM_P1;HPM_P2
2023/03/01 00:02:21;;;;;;;29.00;21.70;;;20.20;70.90;;;;;;5039417;28;20219;-56
2023/03/01 00:04:48;;;;;;;28.20;19.58;;;20.20;70.90;;;;;;5033152;28;20195;-56
2023/03/01 00:07:14;;;;;;;27.73;19.65;;;20.20;70.90;;;;;;5050518;28;20235;-52
2023/03/01 00:09:41;;;;;;;31.08;19.42;;;20.20;70.80;;;;;;5037474;28;20231;-56
2023/03/01 00:12:08;;;;;;;28.20;18.60;;;20.20;70.80;;;;;;5036615;28;20279;-52
2023/03/01 00:14:34;;;;;;;29.25;18.38;;;20.20;70.80;;;;;;5043433;28;20199;-54
2023/03/01 00:17:03;;;;;;;28.98;20.70;;;20.20;70.80;;;;;;5048166;28;20191;-58
2023/03/01 00:19:29;;;;;;;30.48;20.02;;;20.20;70.70;;;;;;5039849;28;20203;-65
2023/03/01 00:21:56;;;;;;;27.75;19.45;;;20.20;70.70;;;;;;5045053;28;20298;-59
2023/03/01 00:24:23;;;;;;;32.90;21.27;;;20.20;70.60;;;;;;5034791;28;20192;-55
2023/03/01 00:26:49;;;;;;;27.73;19.20;;;20.20;70.70;;;;;;5043251;28;20200;-58
2023/03/01 00:29:16;;;;;;;29.58;17.90;;;20.10;70.50;;;;;;5047434;28;20232;-56
2023/03/01 00:31:43;;;;;;;24.27;17.15;;;20.20;70.60;;;;;;5044721;28;20206;-57
2023/03/01 00:34:11;;;;;;;26.27;17.75;;;20.10;70.40;;;;;;5046817;28;20188;-56
2023/03/01 00:36:38;;;;;;;28.58;18.00;;;20.10;70.40;;;;;;5046757;28;20647;-58
2023/03/01 00:39:08;;;;;;;26.38;17.88;;;20.10;70.40;;;;;;5052497;28;20550;-60
2023/03/01 00:41:35;;;;;;;23.02;15.73;;;20.10;70.30;;;;;;5051679;28;20223;-59
2023/03/01 00:44:02;;;;;;;23.90;16.92;;;20.10;70.30;;;;;;5048255;28;20211;-56
2023/03/01 00:46:30;;;;;;;23.35;15.93;;;20.10;70.30;;;;;;5039736;28;20199;-54
2023/03/01 00:48:56;;;;;;;22.67;15.55;;;20.10;70.30;;;;;;5047910;28;20223;-51
2023/03/01 00:51:27;;;;;;;23.88;16.05;;;20.10;70.20;;;;;;5042912;28;20196;-59
2023/03/01 00:53:54;;;;;;;22.05;14.60;;;20.10;71.00;;;;;;5049820;28;20199;-56
2023/03/01 00:56:21;;;;;;;26.45;17.38;;;20.10;70.10;;;;;;5047919;28;20212;-61
2023/03/01 00:58:48;;;;;;;19.98;14.23;;;20.10;70.00;;;;;;5047013;28;20200;-59
2023/03/01 01:01:17;;;;;;;22.83;15.35;;;20.10;70.10;;;;;;5039254;28;20290;-65
2023/03/01 01:03:46;;;;;;;19.08;13.65;;;20.10;70.00;;;;;;5041031;28;20670;-55
2023/03/01 01:06:18;;;;;;;20.83;14.82;;;20.10;70.00;;;;;;5047319;28;20210;-59
2023/03/01 01:08:46;;;;;;;17.85;14.00;;;20.10;70.00;;;;;;5050820;28;20202;-55
2023/03/01 01:11:13;;;;;;;18.90;13.98;;;20.10;70.00;;;;;;5043558;28;20699;-58
2023/03/01 01:13:40;;;;;;;22.45;15.05;;;20.10;69.90;;;;;;5050573;28;20205;-55
2023/03/01 01:16:08;;;;;;;22.38;14.00;;;20.10;69.90;;;;;;5050333;28;20200;-55
2023/03/01 01:18:35;;;;;;;21.40;14.32;;;20.10;69.80;;;;;;5047007;28;20203;-55
2023/03/01 01:21:06;;;;;;;19.42;14.55;;;20.10;69.90;;;;;;5046428;28;20560;-58
2023/03/01 01:23:32;;;;;;;21.23;13.73;;;20.10;69.80;;;;;;5042152;28;20199;-59
2023/03/01 01:26:06;;;;;;;19.45;14.30;;;20.10;69.70;;;;;;5045678;28;20226;-59
2023/03/01 01:28:33;;;;;;;17.08;13.07;;;20.10;69.60;;;;;;5049870;28;20195;-53
2023/03/01 01:31:00;;;;;;;18.65;12.80;;;20.10;69.60;;;;;;5048766;28;20219;-55
2023/03/01 01:33:27;;;;;;;20.38;13.20;;;20.10;69.50;;;;;;5044404;28;20199;-60
2023/03/01 01:35:54;;;;;;;19.23;13.98;;;20.10;69.50;;;;;;5034309;28;20195;-55
2023/03/01 01:38:21;;;;;;;20.35;13.15;;;20.10;69.60;;;;;;5044820;28;20227;-58
2023/03/01 01:40:49;;;;;;;16.33;12.75;;;20.10;69.40;;;;;;5045762;28;20244;-57
2023/03/01 01:43:21;;;;;;;19.33;12.25;;;20.10;69.50;;;;;;5050587;28;20210;-56
2023/03/01 01:45:48;;;;;;;20.55;13.18;;;20.10;69.50;;;;;;5044066;28;20203;-58
2023/03/01 01:48:18;;;;;;;16.73;12.48;;;20.10;69.40;;;;;;5044330;28;20655;-56
2023/03/01 01:50:47;;;;;;;14.68;10.63;;;20.10;69.40;;;;;;5047511;28;20261;-65
2023/03/01 01:53:17;;;;;;;16.30;12.82;;;20.10;69.40;;;;;;5043938;28;20222;-59
2023/03/01 01:55:48;;;;;;;15.15;11.55;;;20.10;69.40;;;;;;5041963;28;20209;-62
2023/03/01 01:58:18;;;;;;;15.73;10.80;;;20.10;70.10;;;;;;5049828;28;20196;-58
2023/03/01 02:00:47;;;;;;;17.58;11.57;;;20.10;69.30;;;;;;5045918;28;20199;-54
2023/03/01 02:03:17;;;;;;;18.35;13.13;;;20.10;69.20;;;;;;5044636;28;20191;-55
2023/03/01 02:05:48;;;;;;;17.55;12.55;;;20.10;69.20;;;;;;5039618;28;20199;-59
2023/03/01 02:08:16;;;;;;;14.00;10.57;;;20.10;69.30;;;;;;5044141;28;20199;-55
2023/03/01 02:10:43;;;;;;;13.77;10.55;;;20.10;69.20;;;;;;5044074;28;20220;-53
2023/03/01 02:13:11;;;;;;;17.23;10.90;;;20.10;69.20;;;;;;5046784;28;20209;-60
2023/03/01 02:15:40;;;;;;;15.20;10.48;;;20.10;69.10;;;;;;5047410;28;20480;-50
2023/03/01 02:18:10;;;;;;;14.40;9.90;;;20.10;69.80;;;;;;5043838;28;20199;-55
2023/03/01 02:20:45;;;;;;;16.20;11.77;;;20.10;69.00;;;;;;5042082;28;20574;-55
2023/03/01 02:23:12;;;;;;;15.27;10.23;;;20.10;69.00;;;;;;5049554;28;20640;-57
2023/03/01 02:25:47;;;;;;;15.00;10.20;;;20.10;68.90;;;;;;5044511;28;20226;-55
2023/03/01 02:28:27;;;;;;;14.35;10.63;;;20.10;68.90;;;;;;5042652;28;20226;-60
2023/03/01 02:33:40;;;;;;;14.40;10.85;;;20.10;68.90;;;;;;5047257;28;20374;-55
2023/03/01 02:36:11;;;;;;;15.18;10.75;;;20.10;68.90;;;;;;5044767;28;20191;-55
2023/03/01 02:38:38;;;;;;;15.73;10.60;;;20.10;68.90;;;;;;5040634;28;20199;-56
2023/03/01 02:41:06;;;;;;;13.32;9.65;;;20.10;68.90;;;;;;5041060;28;20211;-61
2023/03/01 02:43:35;;;;;;;13.77;10.13;;;20.10;68.90;;;;;;5047386;28;20216;-58
2023/03/01 02:46:06;;;;;;;13.20;8.80;;;20.10;68.80;;;;;;5046971;28;20642;-56
2023/03/01 02:48:41;;;;;;;10.35;7.97;;;20.10;69.00;;;;;;5043341;28;20196;-57
2023/03/01 02:51:15;;;;;;;12.23;9.05;;;20.10;68.80;;;;;;5048130;28;20215;-62
2023/03/01 02:53:50;;;;;;;14.55;10.02;;;20.10;68.80;;;;;;5048204;28;20203;-56
2023/03/01 02:56:17;;;;;;;12.40;9.38;;;20.10;68.80;;;;;;5044247;28;20195;-55
2023/03/01 02:58:50;;;;;;;13.90;9.40;;;20.10;68.70;;;;;;5045830;28;20207;-56
2023/03/01 03:01:17;;;;;;;14.20;9.32;;;20.10;68.70;;;;;;5044886;28;20207;-57
2023/03/01 03:03:44;;;;;;;10.60;8.88;;;20.10;68.70;;;;;;5039204;28;20210;-54
2023/03/01 03:06:11;;;;;;;12.45;8.82;;;20.10;68.70;;;;;;5043650;28;20196;-55
2023/03/01 03:08:38;;;;;;;12.10;9.07;;;20.10;68.70;;;;;;5039353;28;20187;-53
2023/03/01 03:11:05;;;;;;;13.00;9.10;;;20.10;68.70;;;;;;5045591;28;20228;-59
2023/03/01 03:13:32;;;;;;;12.43;8.60;;;20.10;68.50;;;;;;5047239;28;20221;-53
2023/03/01 03:16:00;;;;;;;11.77;8.25;;;20.10;68.50;;;;;;5044078;28;20199;-51
2023/03/01 03:18:26;;;;;;;10.70;8.60;;;20.10;68.40;;;;;;5040950;28;20198;-59
2023/03/01 03:20:54;;;;;;;11.88;8.52;;;20.10;68.40;;;;;;5042572;28;20579;-56
2023/03/01 03:23:22;;;;;;;10.95;8.55;;;20.10;68.40;;;;;;5046285;28;20211;-61
2023/03/01 03:25:49;;;;;;;11.05;8.35;;;20.10;68.40;;;;;;5047429;28;20270;-57
2023/03/01 03:28:16;;;;;;;10.68;8.43;;;20.10;68.40;;;;;;5047345;28;20195;-59
2023/03/01 03:30:44;;;;;;;9.63;7.50;;;20.10;68.30;;;;;;5046789;28;20214;-58
2023/03/01 03:33:13;;;;;;;10.82;7.90;;;20.10;69.20;;;;;;5042730;28;20191;-57
2023/03/01 03:35:42;;;;;;;11.18;7.75;;;20.10;68.30;;;;;;5047324;28;20199;-58
2023/03/01 03:38:15;;;;;;;10.57;8.18;;;20.10;68.30;;;;;;5046079;28;21661;-56
2023/03/01 03:40:44;;;;;;;10.93;7.07;;;20.10;68.30;;;;;;5040661;28;20195;-56
2023/03/01 03:43:13;;;;;;;9.98;7.28;;;20.10;68.20;;;;;;5045752;28;20203;-54
2023/03/01 03:45:40;;;;;;;11.70;7.40;;;20.10;68.20;;;;;;5040190;28;20196;-56
2023/03/01 03:48:10;;;;;;;9.70;6.97;;;20.10;68.20;;;;;;5045251;28;20620;-62
2023/03/01 03:50:39;;;;;;;11.57;8.13;;;20.10;68.20;;;;;;5043492;28;20631;-55
2023/03/01 03:53:07;;;;;;;10.60;7.80;;;20.10;68.20;;;;;;5044776;28;20833;-58
2023/03/01 03:55:35;;;;;;;10.48;7.57;;;20.10;68.20;;;;;;5044030;28;20195;-55
2023/03/01 03:58:06;;;;;;;9.68;7.30;;;20.10;68.20;;;;;;5045998;28;20317;-53
2023/03/01 04:00:34;;;;;;;9.52;7.57;;;20.10;68.10;;;;;;5045510;28;20465;-52
2023/03/01 04:03:01;;;;;;;10.10;7.70;;;20.10;68.10;;;;;;5047290;28;20567;-55
2023/03/01 04:05:28;;;;;;;7.78;6.95;;;20.00;67.90;;;;;;5042617;28;20200;-55
2023/03/01 04:08:01;;;;;;;8.35;6.75;;;20.10;67.90;;;;;;5050678;28;20195;-57
2023/03/01 04:10:29;;;;;;;9.20;6.97;;;20.00;67.80;;;;;;5039937;28;20308;-59
2023/03/01 04:12:56;;;;;;;10.50;7.07;;;20.00;67.80;;;;;;5049560;28;20195;-54
2023/03/01 04:15:24;;;;;;;7.55;6.00;;;20.00;67.80;;;;;;5048930;28;20191;-59
2023/03/01 04:17:52;;;;;;;8.70;6.70;;;20.10;67.90;;;;;;5048315;28;20196;-60
2023/03/01 04:20:24;;;;;;;7.30;6.10;;;20.00;67.90;;;;;;5047445;28;20195;-61
2023/03/01 04:22:52;;;;;;;8.48;6.35;;;20.00;68.20;;;;;;5045690;28;20621;-59
2023/03/01 04:25:20;;;;;;;7.68;6.32;;;20.00;68.10;;;;;;5049484;28;20208;-58
2023/03/01 04:27:47;;;;;;;7.05;5.63;;;20.00;68.20;;;;;;5044291;28;20563;-59
2023/03/01 04:30:14;;;;;;;6.82;6.18;;;20.00;68.30;;;;;;5049650;28;20195;-57
2023/03/01 04:32:41;;;;;;;9.25;6.88;;;20.00;68.30;;;;;;5050195;28;20573;-54
2023/03/01 04:35:08;;;;;;;7.30;5.65;;;20.00;68.30;;;;;;5042214;28;20670;-57
2023/03/01 04:37:36;;;;;;;7.45;5.95;;;20.00;68.40;;;;;;5043419;28;20563;-55
2023/03/01 04:40:12;;;;;;;9.05;6.43;;;20.00;68.40;;;;;;5046294;28;20195;-56
2023/03/01 04:42:40;;;;;;;9.40;6.53;;;20.00;68.40;;;;;;5048433;28;20207;-56
2023/03/01 04:45:12;;;;;;;8.98;6.90;;;20.00;68.50;;;;;;5049119;28;20191;-56
2023/03/01 04:47:40;;;;;;;8.45;7.05;;;20.00;68.40;;;;;;5048304;28;20199;-67
2023/03/01 04:50:07;;;;;;;8.95;6.25;;;20.00;68.50;;;;;;5049706;28;20188;-56
2023/03/01 04:52:34;;;;;;;7.80;6.03;;;20.00;68.50;;;;;;5042549;28;20215;-56
2023/03/01 04:55:01;;;;;;;8.05;6.55;;;20.00;68.50;;;;;;5048334;28;20227;-54
2023/03/01 04:57:28;;;;;;;7.50;4.88;;;20.00;68.50;;;;;;5045778;28;20219;-57
2023/03/01 04:59:56;;;;;;;7.80;6.13;;;20.00;68.50;;;;;;5046593;28;20199;-57
2023/03/01 05:02:23;;;;;;;6.95;6.00;;;20.00;68.50;;;;;;5046297;28;20195;-55
2023/03/01 05:04:50;;;;;;;8.38;6.18;;;20.00;68.50;;;;;;5042945;28;20235;-61
2023/03/01 05:07:19;;;;;;;6.60;5.10;;;20.00;68.50;;;;;;5048405;28;20215;-57
2023/03/01 05:09:46;;;;;;;6.93;5.18;;;20.00;68.50;;;;;;5034146;28;20188;-53
2023/03/01 05:12:12;;;;;;;7.90;5.72;;;20.00;69.40;;;;;;5042443;28;21086;-57
2023/03/01 05:14:39;;;;;;;6.25;5.65;;;20.00;68.50;;;;;;5047321;28;20678;-53
2023/03/01 05:17:08;;;;;;;7.80;5.00;;;20.00;68.50;;;;;;5048069;28;20200;-56
2023/03/01 05:19:35;;;;;;;6.40;4.28;;;20.00;68.50;;;;;;5040293;28;20476;-56
2023/03/01 05:22:04;;;;;;;6.95;5.40;;;20.00;68.40;;;;;;5046309;28;20223;-63
2023/03/01 05:24:33;;;;;;;5.93;5.20;;;20.00;68.50;;;;;;5041243;28;20195;-53
2023/03/01 05:27:01;;;;;;;7.53;5.35;;;20.00;68.40;;;;;;5048939;28;20558;-59
2023/03/01 05:29:29;;;;;;;5.50;4.60;;;20.00;68.40;;;;;;5049486;28;20191;-58
2023/03/01 05:31:58;;;;;;;6.45;5.35;;;20.00;68.50;;;;;;5051065;28;20218;-64
2023/03/01 05:34:27;;;;;;;6.32;4.60;;;20.00;69.30;;;;;;5045223;28;20227;-55
2023/03/01 05:36:55;;;;;;;5.70;4.75;;;20.00;68.40;;;;;;5045056;28;20210;-57
2023/03/01 05:39:22;;;;;;;6.40;5.00;;;20.00;68.40;;;;;;5049570;28;20203;-57
2023/03/01 05:41:52;;;;;;;7.35;5.63;;;20.00;68.40;;;;;;5046584;28;20231;-56
2023/03/01 05:44:19;;;;;;;6.43;4.88;;;20.00;68.50;;;;;;5049208;28;20207;-56
2023/03/01 05:46:45;;;;;;;8.70;4.78;;;20.00;68.40;;;;;;5045333;28;20207;-58
2023/03/01 05:49:13;;;;;;;6.55;4.97;;;20.00;68.40;;;;;;5041870;28;20198;-58
2023/03/01 05:51:41;;;;;;;6.43;4.65;;;20.00;68.40;;;;;;5041536;28;20282;-53
2023/03/01 05:54:08;;;;;;;6.80;5.50;;;20.00;68.40;;;;;;5044237;28;20200;-56
2023/03/01 05:56:35;;;;;;;5.95;4.82;;;20.00;68.40;;;;;;5050370;28;20206;-58
2023/03/01 05:59:03;;;;;;;6.60;4.45;;;20.00;68.40;;;;;;5044780;28;20659;-53
2023/03/01 06:01:30;;;;;;;6.15;4.32;;;20.00;68.40;;;;;;5046644;28;20570;-53
2023/03/01 06:03:57;;;;;;;6.30;5.03;;;20.00;68.40;;;;;;5042888;28;20277;-60
2023/03/01 06:06:23;;;;;;;5.95;4.85;;;20.00;68.40;;;;;;5044177;28;20223;-55
2023/03/01 06:08:52;;;;;;;5.57;4.40;;;20.00;68.30;;;;;;5046123;28;20214;-59
2023/03/01 06:11:19;;;;;;;4.95;4.03;;;20.00;68.30;;;;;;5049216;28;20220;-57
2023/03/01 06:13:46;;;;;;;4.85;3.80;;;20.00;68.30;;;;;;5041398;28;20564;-55
2023/03/01 06:16:14;;;;;;;6.03;4.13;;;20.00;68.40;;;;;;5044338;28;20199;-58
2023/03/01 06:18:41;;;;;;;6.72;4.40;;;20.00;68.30;;;;;;5044061;28;20203;-59
2023/03/01 06:21:09;;;;;;;4.88;4.40;;;20.00;68.30;;;;;;5034871;28;20203;-62
2023/03/01 06:23:36;;;;;;;5.50;4.07;;;20.00;68.30;;;;;;5048121;28;20211;-62
2023/03/01 06:26:08;;;;;;;4.78;4.00;;;20.00;68.30;;;;;;5042354;28;20206;-55
2023/03/01 06:28:36;;;;;;;6.45;4.30;;;20.00;68.30;;;;;;5047327;28;20199;-56
2023/03/01 06:31:03;;;;;;;4.57;3.75;;;20.00;68.30;;;;;;5046630;28;20192;-60
2023/03/01 06:33:29;;;;;;;5.32;4.15;;;20.00;68.20;;;;;;5044666;28;20196;-59
2023/03/01 06:35:57;;;;;;;4.45;3.95;;;20.00;68.20;;;;;;5041011;28;20196;-57
2023/03/01 06:38:24;;;;;;;5.45;4.30;;;20.00;68.20;;;;;;5043074;28;20219;-55
2023/03/01 06:40:56;;;;;;;5.38;4.63;;;20.00;68.20;;;;;;5045812;28;20196;-59
2023/03/01 06:43:24;;;;;;;5.30;4.10;;;20.00;68.10;;;;;;5041563;28;20277;-61
2023/03/01 06:45:51;;;;;;;5.00;3.60;;;19.90;68.80;;;;;;5042442;28;20195;-57
2023/03/01 06:48:18;;;;;;;4.90;3.70;;;19.90;67.90;;;;;;5043914;28;20188;-57
2023/03/01 06:50:44;;;;;;;6.20;4.18;;;19.90;67.90;;;;;;5048964;28;20195;-55
2023/03/01 06:53:11;;;;;;;5.50;4.35;;;19.90;67.90;;;;;;5045197;28;20223;-55
2023/03/01 06:55:38;;;;;;;4.35;3.78;;;19.90;68.00;;;;;;5041932;28;20647;-55
2023/03/01 06:58:05;;;;;;;4.25;3.55;;;19.90;67.90;;;;;;5046461;28;20195;-52
2023/03/01 07:00:33;;;;;;;4.72;3.88;;;19.90;68.10;;;;;;5043568;28;20215;-56
2023/03/01 07:03:01;;;;;;;5.18;4.20;;;19.90;68.10;;;;;;5042776;28;20204;-57
2023/03/01 07:05:28;;;;;;;4.60;3.45;;;20.00;68.10;;;;;;5045289;28;20191;-54
2023/03/01 07:07:56;;;;;;;4.22;3.75;;;20.00;68.10;;;;;;5048014;28;20195;-59
2023/03/01 07:10:22;;;;;;;4.68;4.20;;;20.00;68.10;;;;;;5043614;28;20191;-54
2023/03/01 07:12:49;;;;;;;3.97;3.03;;;20.10;68.20;;;;;;5044548;28;20219;-56
2023/03/01 07:15:16;;;;;;;4.43;3.25;;;20.10;68.10;;;;;;5044422;28;20191;-51
2023/03/01 07:17:44;;;;;;;3.88;3.30;;;20.10;68.10;;;;;;5044505;28;20191;-54
2023/03/01 07:20:12;;;;;;;3.67;3.28;;;20.10;68.10;;;;;;5040430;28;20195;-50
2023/03/01 07:22:41;;;;;;;4.43;3.30;;;20.10;68.10;;;;;;5042102;28;20220;-51
2023/03/01 07:25:09;;;;;;;4.22;3.25;;;20.10;68.10;;;;;;5037089;28;20235;-57
2023/03/01 07:27:35;;;;;;;4.15;3.78;;;20.10;68.00;;;;;;5048866;28;20227;-56
2023/03/01 07:30:03;;;;;;;4.53;3.88;;;20.10;68.00;;;;;;5045873;28;20200;-55
2023/03/01 07:32:29;;;;;;;5.45;3.55;;;20.10;68.00;;;;;;5049619;28;20564;-57
2023/03/01 07:34:57;;;;;;;3.65;3.35;;;20.10;68.00;;;;;;5042970;28;20198;-57
2023/03/01 07:37:24;;;;;;;3.90;3.50;;;20.10;68.00;;;;;;5048379;28;20657;-56
2023/03/01 07:39:51;;;;;;;3.83;3.42;;;20.10;67.90;;;;;;5048834;28;20206;-52
2023/03/01 07:42:17;;;;;;;4.68;3.90;;;20.10;67.90;;;;;;5035546;28;20211;-58
2023/03/01 07:44:44;;;;;;;2.60;2.40;;;20.20;68.00;;;;;;5045066;28;20199;-55
2023/03/01 07:47:11;;;;;;;4.63;3.80;;;20.10;67.90;;;;;;5046719;28;20187;-52
2023/03/01 07:49:37;;;;;;;4.32;3.25;;;20.10;67.90;;;;;;5047692;28;20208;-59
2023/03/01 07:52:05;;;;;;;4.78;3.75;;;20.10;67.90;;;;;;5049600;28;20223;-53
2023/03/01 07:54:32;;;;;;;3.65;2.60;;;20.10;67.80;;;;;;5041256;28;20648;-55
2023/03/01 07:56:59;;;;;;;4.10;3.00;;;20.10;67.80;;;;;;5047718;28;20199;-53
2023/03/01 07:59:28;;;;;;;3.67;2.92;;;20.10;67.80;;;;;;5050693;28;20199;-54
2023/03/01 08:01:55;;;;;;;4.32;3.70;;;20.10;67.80;;;;;;5048306;28;20207;-58
2023/03/01 08:04:24;;;;;;;3.40;3.10;;;20.10;67.80;;;;;;5045047;28;20195;-57
2023/03/01 08:06:51;;;;;;;3.22;2.78;;;20.10;67.80;;;;;;5046509;28;20196;-51
2023/03/01 08:09:19;;;;;;;3.33;3.00;;;20.20;67.90;;;;;;5050126;28;20204;-59
2023/03/01 08:11:46;;;;;;;2.63;2.42;;;20.20;67.90;;;;;;5042834;28;20230;-63
2023/03/01 08:14:12;;;;;;;3.20;2.90;;;20.20;67.90;;;;;;5047692;28;20191;-65
2023/03/01 08:16:39;;;;;;;3.20;2.90;;;20.20;67.90;;;;;;5045078;28;20207;-52
2023/03/01 08:19:07;;;;;;;3.35;3.10;;;20.20;67.90;;;;;;5043846;28;20552;-60
2023/03/01 08:21:35;;;;;;;2.90;2.60;;;20.20;67.90;;;;;;5048398;28;20219;-54
2023/03/01 08:24:02;;;;;;;4.93;3.70;;;20.20;67.90;;;;;;5044350;28;20281;-58
2023/03/01 08:26:31;;;;;;;2.92;2.63;;;20.20;67.90;;;;;;5046181;28;20224;-54
2023/03/01 08:28:57;;;;;;;2.90;2.60;;;20.20;67.80;;;;;;5046517;28;20205;-54
2023/03/01 08:31:26;;;;;;;3.88;2.85;;;20.20;67.80;;;;;;5044926;28;20207;-56
2023/03/01 08:33:55;;;;;;;3.22;2.92;;;20.20;67.90;;;;;;5052267;28;20191;-57
2023/03/01 08:36:23;;;;;;;3.08;2.78;;;20.20;67.80;;;;;;5049455;28;20249;-56
2023/03/01 08:38:49;;;;;;;8.82;3.38;;;20.20;67.80;;;;;;5045920;28;20720;-56
2023/03/01 08:41:16;;;;;;;5.20;3.00;;;20.30;68.00;;;;;;5040646;28;20192;-56
2023/03/01 08:43:44;;;;;;;2.95;2.65;;;20.30;68.00;;;;;;5048714;28;20551;-55
2023/03/01 08:46:11;;;;;;;4.90;4.30;;;20.30;68.00;;;;;;5045958;28;20199;-61
2023/03/01 08:48:39;;;;;;;2.90;2.17;;;20.30;67.30;;;;;;5048767;28;20200;-58
2023/03/01 08:51:09;;;;;;;4.32;2.92;;;20.20;67.50;;;;;;5050397;28;20192;-62
2023/03/01 08:53:36;;;;;;;3.13;2.50;;;20.20;67.80;;;;;;5050170;28;20243;-61
2023/03/01 08:56:03;;;;;;;3.33;3.03;;;20.20;67.60;;;;;;5049389;28;20651;-60
2023/03/01 08:58:30;;;;;;;9.63;3.50;;;20.20;67.60;;;;;;5046528;28;20485;-60
2023/03/01 09:00:58;;;;;;;3.10;2.80;;;20.30;67.80;;;;;;5047421;28;20193;-59
2023/03/01 09:03:26;;;;;;;2.90;2.60;;;20.30;67.90;;;;;;5040198;28;20203;-64
2023/03/01 09:05:53;;;;;;;2.95;2.67;;;20.30;68.00;;;;;;5039857;28;20210;-62
2023/03/01 09:08:20;;;;;;;3.90;3.28;;;20.30;67.60;;;;;;5046308;28;20207;-65
2023/03/01 09:10:48;;;;;;;7.15;2.83;;;20.20;67.10;;;;;;5047897;28;20199;-63
2023/03/01 09:13:15;;;;;;;3.05;2.70;;;20.20;67.00;;;;;;5042194;28;20679;-65
2023/03/01 09:15:42;;;;;;;2.65;2.45;;;20.30;67.10;;;;;;5043340;28;20200;-65
2023/03/01 09:18:10;;;;;;;5.25;2.80;;;20.30;67.20;;;;;;5047395;28;20203;-65
2023/03/01 09:20:36;;;;;;;5.55;3.55;;;20.30;67.30;;;;;;5042082;28;20202;-65
2023/03/01 09:23:03;;;;;;;3.60;2.70;;;20.30;67.40;;;;;;5047322;28;20216;-65
2023/03/01 09:25:30;;;;;;;3.05;2.60;;;20.30;67.40;;;;;;5049037;28;20188;-65
2023/03/01 09:27:57;;;;;;;2.72;2.22;;;20.30;67.40;;;;;;5044151;28;20227;-65
2023/03/01 09:30:24;;;;;;;3.63;3.00;;;20.30;67.40;;;;;;5047387;28;20766;-65
2023/03/01 09:32:50;;;;;;;2.88;2.60;;;20.30;67.40;;;;;;5050946;28;20629;-66
2023/03/01 09:35:19;;;;;;;2.60;2.38;;;20.30;67.30;;;;;;5049667;28;20202;-65
2023/03/01 09:37:46;;;;;;;5.10;2.95;;;20.30;68.00;;;;;;5047871;28;20202;-65
2023/03/01 09:40:17;;;;;;;4.30;2.40;;;20.30;67.10;;;;;;5045739;28;20644;-65
2023/03/01 09:42:55;;;;;;;3.13;2.53;;;20.30;67.10;;;;;;5046497;28;20203;-65
2023/03/01 09:45:28;;;;;;;3.55;2.60;;;20.30;67.00;;;;;;5050086;28;20203;-65
2023/03/01 09:47:56;;;;;;;2.97;2.65;;;20.30;67.00;;;;;;5046281;28;20203;-65
2023/03/01 09:50:28;;;;;;;2.60;2.40;;;20.30;67.00;;;;;;5042385;28;20202;-65
2023/03/01 09:53:02;;;;;;;4.03;2.15;;;20.30;66.90;;;;;;5048431;28;20228;-65
2023/03/01 09:55:34;;;;;;;3.00;2.50;;;20.30;67.00;;;;;;5048416;28;20202;-65
2023/03/01 09:58:07;;;;;;;2.50;2.30;;;20.30;67.00;;;;;;5047398;28;20202;-66
2023/03/01 10:00:40;;;;;;;2.97;2.50;;;20.30;66.90;;;;;;5043410;28;20207;-65
2023/03/01 10:03:13;;;;;;;2.63;2.42;;;20.30;66.80;;;;;;5050053;28;20195;-65
2023/03/01 10:05:51;;;;;;;2.28;2.08;;;20.30;66.90;;;;;;5039184;28;20200;-65
2023/03/01 10:08:39;;;;;;;2.58;2.00;;;20.30;66.80;;;;;;5045834;28;20210;-65
2023/03/01 10:11:16;;;;;;;2.75;2.15;;;20.30;66.80;;;;;;5048426;28;20267;-64
2023/03/01 10:13:48;;;;;;;2.95;2.53;;;20.30;66.90;;;;;;5046540;28;20222;-65
2023/03/01 10:16:18;;;;;;;4.28;1.98;;;20.40;67.00;;;;;;5043028;28;20242;-62
2023/03/01 10:18:48;;;;;;;2.88;2.47;;;20.30;66.80;;;;;;5037177;28;20195;-66
2023/03/01 10:21:19;;;;;;;3.15;2.00;;;20.30;66.80;;;;;;5035731;28;20196;-66
2023/03/01 10:23:46;;;;;;;6.07;2.75;;;20.40;67.70;;;;;;5037051;28;20634;-68
2023/03/01 10:26:39;;;;;;;5.93;3.13;;;20.30;66.40;;;;;;5039987;28;20242;-66
2023/03/01 10:29:08;;;;;;;3.75;2.00;;;20.30;65.80;;;;;;5056188;28;20195;-68
2023/03/01 10:31:42;;;;;;;3.75;2.63;;;20.30;66.20;;;;;;5046111;28;20224;-66
2023/03/01 10:34:12;;;;;;;3.65;2.75;;;20.30;66.40;;;;;;5044819;28;20288;-67
2023/03/01 10:36:42;;;;;;;4.20;2.90;;;20.30;66.40;;;;;;5038971;28;20200;-59
2023/03/01 10:39:15;;;;;;;2.58;2.00;;;20.30;66.40;;;;;;5039620;28;20206;-63
2023/03/01 10:41:55;;;;;;;5.72;2.60;;;20.30;65.80;;;;;;5047772;28;20659;-63
2023/03/01 10:44:38;;;;;;;6.80;2.72;;;20.30;65.70;;;;;;5042828;28;20608;-64
2023/03/01 10:47:04;;;;;;;4.55;2.05;;;20.30;65.60;;;;;;5046712;28;20570;-67
2023/03/01 10:49:32;;;;;;;4.63;2.55;;;20.30;65.50;;;;;;5038174;28;20223;-67
2023/03/01 10:52:17;;;;;;;2.42;2.22;;;20.30;65.30;;;;;;5054003;28;20206;-67
2023/03/01 10:54:53;;;;;;;5.88;2.40;;;20.20;64.90;;;;;;5041003;28;20282;-62
2023/03/01 10:57:37;;;;;;;3.95;2.50;;;20.20;64.80;;;;;;5048491;28;20198;-64
2023/03/01 11:00:24;;;;;;;2.00;1.90;;;20.20;64.60;;;;;;5046896;28;20200;-65
2023/03/01 11:03:02;;;;;;;2.95;2.25;;;20.20;64.50;;;;;;5038773;28;20291;-65
2023/03/01 11:05:30;;;;;;;3.63;2.78;;;20.20;64.30;;;;;;5048376;28;20231;-70
2023/03/01 11:07:59;;;;;;;2.88;2.65;;;20.30;64.30;;;;;;5042710;28;20195;-67
2023/03/01 11:10:28;;;;;;;2.63;2.40;;;20.30;64.20;;;;;;5044320;28;20195;-72
2023/03/01 11:13:07;;;;;;;2.00;1.65;;;20.30;64.00;;;;;;5045113;28;20576;-69
2023/03/01 11:15:33;;;;;;;5.32;2.67;;;20.30;64.00;;;;;;5044543;28;20190;-70
2023/03/01 11:18:00;;;;;;;3.25;2.13;;;20.30;64.70;;;;;;5043585;28;20218;-67
2023/03/01 11:20:31;;;;;;;2.22;2.00;;;20.30;63.90;;;;;;5047787;28;20203;-64
2023/03/01 11:23:05;;;;;;;2.53;2.33;;;20.30;63.90;;;;;;5048002;28;20215;-64
2023/03/01 11:25:36;;;;;;;4.20;2.20;;;20.30;63.90;;;;;;5045444;28;20662;-65
2023/03/01 11:28:05;;;;;;;2.50;2.30;;;20.30;63.90;;;;;;5050614;28;20201;-64
2023/03/01 11:30:37;;;;;;;2.40;2.20;;;20.40;64.10;;;;;;5044883;28;20528;-66
2023/03/01 11:33:17;;;;;;;2.45;2.25;;;20.30;64.10;;;;;;5054520;28;20865;-66
2023/03/01 11:35:54;;;;;;;2.78;2.15;;;20.40;64.20;;;;;;5048141;28;20195;-65
2023/03/01 11:38:25;;;;;;;2.33;2.13;;;20.40;64.30;;;;;;5041366;28;20218;-65
2023/03/01 11:40:58;;;;;;;2.60;1.92;;;20.40;64.30;;;;;;5041717;28;20461;-66
2023/03/01 11:43:34;;;;;;;3.25;2.60;;;20.40;64.40;;;;;;5047904;28;20207;-66
2023/03/01 11:46:28;;;;;;;3.05;2.15;;;20.40;65.30;;;;;;5045742;28;20606;-64
2023/03/01 11:49:09;;;;;;;2.10;1.92;;;20.40;64.50;;;;;;5039122;28;20206;-67
2023/03/01 11:51:46;;;;;;;2.60;2.40;;;20.40;64.60;;;;;;5042348;28;20199;-66
2023/03/01 11:54:35;;;;;;;3.63;2.30;;;20.40;64.70;;;;;;5049029;28;20218;-66
2023/03/01 11:57:11;;;;;;;2.22;2.05;;;20.40;64.70;;;;;;5048255;28;20203;-66
2023/03/01 12:00:07;;;;;;;3.08;2.65;;;20.50;64.90;;;;;;5044225;28;20218;-66
2023/03/01 12:03:18;;;;;;;3.90;2.08;;;20.40;64.30;;;;;;5053888;28;20196;-67
2023/03/01 12:06:22;;;;;;;2.88;2.30;;;20.20;63.30;;;;;;5045759;28;20234;-68
2023/03/01 12:09:00;;;;;;;3.50;2.30;;;20.30;63.40;;;;;;5031666;28;20199;-66
2023/03/01 12:11:40;;;;;;;3.88;3.38;;;20.30;63.30;;;;;;5045720;28;20200;-68
2023/03/01 12:14:24;;;;;;;8.18;4.30;;;20.10;59.40;;;;;;5039125;28;20226;-66
2023/03/01 12:17:10;;;;;;;4.72;3.75;;;19.80;56.80;;;;;;5045361;28;20218;-69
2023/03/01 12:19:55;;;;;;;3.63;3.17;;;19.70;56.50;;;;;;5045932;28;20200;-69
2023/03/01 12:22:31;;;;;;;3.58;2.70;;;19.80;57.10;;;;;;5043374;28;20219;-67
2023/03/01 12:25:26;;;;;;;2.97;2.40;;;19.90;57.00;;;;;;5047973;28;20268;-64
2023/03/01 12:28:19;;;;;;;3.65;3.15;;;20.00;57.50;;;;;;5042597;28;20200;-65
2023/03/01 12:31:05;;;;;;;3.35;3.05;;;20.10;58.10;;;;;;5043786;28;20204;-62
2023/03/01 12:33:43;;;;;;;5.63;2.38;;;20.10;58.00;;;;;;5046536;28;20577;-66
2023/03/01 12:36:25;;;;;;;2.65;2.45;;;20.20;58.10;;;;;;5046571;28;20210;-65
2023/03/01 12:39:02;;;;;;;2.70;2.30;;;20.30;58.80;;;;;;5040419;28;20199;-69
2023/03/01 12:41:44;;;;;;;4.43;2.67;;;20.30;58.70;;;;;;5051702;28;20195;-66
2023/03/01 12:44:31;;;;;;;4.38;2.80;;;20.40;59.00;;;;;;5052754;28;20235;-66
2023/03/01 12:47:12;;;;;;;2.40;2.20;;;20.50;59.40;;;;;;5037524;28;20678;-64
2023/03/01 12:49:44;;;;;;;2.10;1.67;;;20.50;59.60;;;;;;5048199;28;20203;-66
2023/03/01 12:52:14;;;;;;;2.63;2.33;;;20.50;59.70;;;;;;5050774;28;20515;-65
2023/03/01 12:54:42;;;;;;;3.92;2.28;;;20.60;59.90;;;;;;5053826;28;20729;-63
2023/03/01 12:57:15;;;;;;;2.95;2.75;;;20.60;60.10;;;;;;5048309;28;20667;-67
2023/03/01 12:59:56;;;;;;;3.37;2.23;;;20.60;61.00;;;;;;5043614;28;20199;-65